Sylvania, Pennsylvania
Current Conditions -  °F | °C
As of 12:36 AM on Friday 28 Nov 2014 (Local Time) from KELM Reporting Station
Light Snow Light Snow  
Wind Chill: 22°   Ceiling: 1300
Heat Index: 28°   Visibility: 4mi
Dew Point: 26°   Wind: 6mph
Humidity: 92%   Direction: 100°E
Pressure: 30.05"   Gusts: NA
Location:  41.81°N, 76.86°W
Report Text: KELM 280536Z AUTO 10005KT 4SM -SN BR BKN013 OVC022 M02/M03 A3005 RMK AO2 P0000 T10221033
Loading
Personal Weather Stations






























Interactive Weather Map New forecast layout! Learn more

10-Day Weather Forecast

Advertisements
Track Severe Weather on mobile